sensor_id;sensor_type;location;lat;lon;timestamp;pressure;altitude;pressure_sealevel;temperature;humidity
69257;BME280;56376;53.356;-1.748;2023-02-03T00:00:15;100260.00;;;8.20;100.00
69257;BME280;56376;53.356;-1.748;2023-02-03T00:02:41;100250.47;;;8.20;100.00
69257;BME280;56376;53.356;-1.748;2023-02-03T00:05:07;100266.94;;;8.21;100.00
69257;BME280;56376;53.356;-1.748;2023-02-03T00:07:32;100258.25;;;8.20;100.00
69257;BME280;56376;53.356;-1.748;2023-02-03T00:09:59;100258.31;;;8.19;100.00
69257;BME280;56376;53.356;-1.748;2023-02-03T00:12:24;100236.53;;;8.23;100.00
69257;BME280;56376;53.356;-1.748;2023-02-03T00:14:50;100246.94;;;8.24;100.00
69257;BME280;56376;53.356;-1.748;2023-02-03T00:17:15;100259.94;;;8.24;100.00
69257;BME280;56376;53.356;-1.748;2023-02-03T00:19:40;100257.31;;;8.26;100.00
69257;BME280;56376;53.356;-1.748;2023-02-03T00:22:06;100254.75;;;8.24;100.00
69257;BME280;56376;53.356;-1.748;2023-02-03T00:24:31;100255.59;;;8.27;100.00
69257;BME280;56376;53.356;-1.748;2023-02-03T00:26:57;100257.25;;;8.31;100.00
69257;BME280;56376;53.356;-1.748;2023-02-03T00:29:22;100252.03;;;8.31;100.00
69257;BME280;56376;53.356;-1.748;2023-02-03T00:31:51;100258.13;;;8.30;100.00
69257;BME280;56376;53.356;-1.748;2023-02-03T00:34:17;100250.31;;;8.30;100.00
69257;BME280;56376;53.356;-1.748;2023-02-03T00:36:42;100267.59;;;8.34;100.00
69257;BME280;56376;53.356;-1.748;2023-02-03T00:39:08;100277.09;;;8.38;100.00
69257;BME280;56376;53.356;-1.748;2023-02-03T00:41:33;100280.59;;;8.35;100.00
69257;BME280;56376;53.356;-1.748;2023-02-03T00:43:58;100278.78;;;8.39;100.00
69257;BME280;56376;53.356;-1.748;2023-02-03T00:46:24;100284.03;;;8.37;100.00
69257;BME280;56376;53.356;-1.748;2023-02-03T00:48:49;100272.72;;;8.43;100.00
69257;BME280;56376;53.356;-1.748;2023-02-03T00:51:15;100284.81;;;8.45;100.00
69257;BME280;56376;53.356;-1.748;2023-02-03T00:53:40;100283.91;;;8.48;100.00
69257;BME280;56376;53.356;-1.748;2023-02-03T00:56:06;100286.63;;;8.40;100.00
69257;BME280;56376;53.356;-1.748;2023-02-03T00:58:38;100280.53;;;8.38;100.00
69257;BME280;56376;53.356;-1.748;2023-02-03T01:01:07;100278.78;;;8.39;100.00
69257;BME280;56376;53.356;-1.748;2023-02-03T01:03:32;100281.44;;;8.36;100.00
69257;BME280;56376;53.356;-1.748;2023-02-03T01:06:13;100266.69;;;8.36;100.00
69257;BME280;56376;53.356;-1.748;2023-02-03T01:08:39;100260.69;;;8.34;100.00
69257;BME280;56376;53.356;-1.748;2023-02-03T01:11:16;100263.22;;;8.37;100.00
69257;BME280;56376;53.356;-1.748;2023-02-03T01:13:42;100261.53;;;8.35;100.00
69257;BME280;56376;53.356;-1.748;2023-02-03T01:16:09;100268.47;;;8.34;100.00
69257;BME280;56376;53.356;-1.748;2023-02-03T01:18:36;100269.34;;;8.35;100.00
69257;BME280;56376;53.356;-1.748;2023-02-03T01:21:14;100265.91;;;8.31;100.00
69257;BME280;56376;53.356;-1.748;2023-02-03T01:23:40;100273.75;;;8.30;100.00
69257;BME280;56376;53.356;-1.748;2023-02-03T01:26:09;100280.72;;;8.26;100.00
69257;BME280;56376;53.356;-1.748;2023-02-03T07:59:11;100575.84;;;8.14;100.00
69257;BME280;56376;53.356;-1.748;2023-02-03T08:01:38;100576.69;;;8.16;100.00
69257;BME280;56376;53.356;-1.748;2023-02-03T08:06:38;100587.09;;;8.19;100.00
69257;BME280;56376;53.356;-1.748;2023-02-03T08:09:05;100581.03;;;8.16;100.00
69257;BME280;56376;53.356;-1.748;2023-02-03T08:11:34;100590.59;;;8.15;100.00
69257;BME280;56376;53.356;-1.748;2023-02-03T08:13:59;100591.44;;;8.16;100.00
69257;BME280;56376;53.356;-1.748;2023-02-03T08:16:25;100599.25;;;8.17;100.00
69257;BME280;56376;53.356;-1.748;2023-02-03T08:18:50;100606.16;;;8.18;100.00
69257;BME280;56376;53.356;-1.748;2023-02-03T08:21:16;100606.19;;;8.15;100.00
69257;BME280;56376;53.356;-1.748;2023-02-03T08:23:41;100613.13;;;8.18;100.00
69257;BME280;56376;53.356;-1.748;2023-02-03T08:26:07;100607.91;;;8.18;100.00
69257;BME280;56376;53.356;-1.748;2023-02-03T08:28:32;100623.53;;;8.18;100.00
69257;BME280;56376;53.356;-1.748;2023-02-03T08:30:58;100630.47;;;8.19;100.00
69257;BME280;56376;53.356;-1.748;2023-02-03T08:33:23;100637.41;;;8.20;100.00
69257;BME280;56376;53.356;-1.748;2023-02-03T08:35:49;100652.16;;;8.18;100.00
69257;BME280;56376;53.356;-1.748;2023-02-03T08:38:15;100667.78;;;8.16;100.00
69257;BME280;56376;53.356;-1.748;2023-02-03T08:40:40;100673.84;;;8.18;100.00
69257;BME280;56376;53.356;-1.748;2023-02-03T08:43:06;100672.13;;;8.17;100.00
69257;BME280;56376;53.356;-1.748;2023-02-03T08:45:31;100672.94;;;8.24;100.00
69257;BME280;56376;53.356;-1.748;2023-02-03T08:47:56;100687.63;;;8.30;100.00
69257;BME280;56376;53.356;-1.748;2023-02-03T08:50:22;100685.88;;;8.29;100.00
69257;BME280;56376;53.356;-1.748;2023-02-03T08:52:47;100697.19;;;8.26;100.00
69257;BME280;56376;53.356;-1.748;2023-02-03T08:55:12;100705.03;;;8.24;100.00
69257;BME280;56376;53.356;-1.748;2023-02-03T08:57:38;100715.47;;;8.21;100.00
69257;BME280;56376;53.356;-1.748;2023-02-03T09:00:07;100712.84;;;8.24;100.00
69257;BME280;56376;53.356;-1.748;2023-02-03T09:02:33;100722.41;;;8.24;100.00
69257;BME280;56376;53.356;-1.748;2023-02-03T09:04:58;100717.19;;;8.24;100.00
69257;BME280;56376;53.356;-1.748;2023-02-03T09:07:24;100733.63;;;8.28;100.00
69257;BME280;56376;53.356;-1.748;2023-02-03T09:09:49;100723.25;;;8.24;100.00
69257;BME280;56376;53.356;-1.748;2023-02-03T09:12:15;100719.78;;;8.24;100.00
69257;BME280;56376;53.356;-1.748;2023-02-03T09:14:41;100725.84;;;8.23;100.00
69257;BME280;56376;53.356;-1.748;2023-02-03T09:17:08;100721.53;;;8.22;100.00
69257;BME280;56376;53.356;-1.748;2023-02-03T09:19:33;100722.34;;;8.29;100.00
69257;BME280;56376;53.356;-1.748;2023-02-03T09:21:59;100728.47;;;8.24;100.00
69257;BME280;56376;53.356;-1.748;2023-02-03T09:24:25;100727.56;;;8.26;100.00
69257;BME280;56376;53.356;-1.748;2023-02-03T09:26:50;100726.72;;;8.27;100.00
69257;BME280;56376;53.356;-1.748;2023-02-03T09:29:16;100734.50;;;8.28;100.00
69257;BME280;56376;53.356;-1.748;2023-02-03T09:31:41;100723.22;;;8.26;100.00
69257;BME280;56376;53.356;-1.748;2023-02-03T09:34:08;100740.56;;;8.29;100.00
69257;BME280;56376;53.356;-1.748;2023-02-03T09:36:33;100746.66;;;8.28;100.00
69257;BME280;56376;53.356;-1.748;2023-02-03T09:38:59;100746.59;;;8.34;100.00
69257;BME280;56376;53.356;-1.748;2023-02-03T09:41:43;100753.50;;;8.36;100.00
69257;BME280;56376;53.356;-1.748;2023-02-03T09:44:26;100770.00;;;8.38;100.00
69257;BME280;56376;53.356;-1.748;2023-02-03T09:46:59;100762.22;;;8.37;100.00
69257;BME280;56376;53.356;-1.748;2023-02-03T09:49:39;100765.66;;;8.36;100.00
69257;BME280;56376;53.356;-1.748;2023-02-03T09:52:14;100768.28;;;8.36;100.00
69257;BME280;56376;53.356;-1.748;2023-02-03T09:54:49;100772.63;;;8.37;100.00
69257;BME280;56376;53.356;-1.748;2023-02-03T09:57:22;100782.19;;;8.39;100.00
69257;BME280;56376;53.356;-1.748;2023-02-03T09:59:49;100783.03;;;8.40;100.00
69257;BME280;56376;53.356;-1.748;2023-02-03T10:03:05;100784.75;;;8.38;100.00
69257;BME280;56376;53.356;-1.748;2023-02-03T10:20:16;100789.94;;;8.45;100.00
69257;BME280;56376;53.356;-1.748;2023-02-03T10:22:50;100794.28;;;8.45;100.00
69257;BME280;56376;53.356;-1.748;2023-02-03T10:25:27;100782.97;;;8.48;100.00
69257;BME280;56376;53.356;-1.748;2023-02-03T10:27:58;100795.13;;;8.50;100.00
69257;BME280;56376;53.356;-1.748;2023-02-03T10:30:27;100804.66;;;8.51;100.00
69257;BME280;56376;53.356;-1.748;2023-02-03T10:33:16;100810.72;;;8.53;100.00
69257;BME280;56376;53.356;-1.748;2023-02-03T10:40:53;100825.41;;;8.65;100.00
69257;BME280;56376;53.356;-1.748;2023-02-03T10:43:19;100828.84;;;8.64;100.00
69257;BME280;56376;53.356;-1.748;2023-02-03T10:46:03;100839.25;;;8.70;100.00
69257;BME280;56376;53.356;-1.748;2023-02-03T10:48:29;100838.34;;;8.73;100.00
69257;BME280;56376;53.356;-1.748;2023-02-03T10:50:54;100839.22;;;8.75;100.00
69257;BME280;56376;53.356;-1.748;2023-02-03T10:53:24;100840.91;;;8.79;100.00
69257;BME280;56376;53.356;-1.748;2023-02-03T10:56:02;100831.38;;;8.78;100.00
69257;BME280;56376;53.356;-1.748;2023-02-03T10:58:30;100837.41;;;8.83;100.00
69257;BME280;56376;53.356;-1.748;2023-02-03T11:01:12;100843.47;;;8.82;100.00
69257;BME280;56376;53.356;-1.748;2023-02-03T11:03:43;100830.44;;;8.85;100.00
69257;BME280;56376;53.356;-1.748;2023-02-03T11:06:17;100826.13;;;8.82;100.00
69257;BME280;56376;53.356;-1.748;2023-02-03T11:08:45;100834.72;;;8.91;100.00
69257;BME280;56376;53.356;-1.748;2023-02-03T11:13:44;100826.06;;;8.90;100.00
69257;BME280;56376;53.356;-1.748;2023-02-03T11:16:15;100839.94;;;8.89;100.00
69257;BME280;56376;53.356;-1.748;2023-02-03T11:21:24;100850.38;;;8.92;100.00
69257;BME280;56376;53.356;-1.748;2023-02-03T11:23:54;100852.91;;;8.97;100.00
69257;BME280;56376;53.356;-1.748;2023-02-03T11:26:24;100862.47;;;8.96;100.00
69257;BME280;56376;53.356;-1.748;2023-02-03T11:28:53;100852.91;;;9.00;100.00
69257;BME280;56376;53.356;-1.748;2023-02-03T11:31:23;100860.66;;;9.07;100.00
69257;BME280;56376;53.356;-1.748;2023-02-03T11:33:52;100858.03;;;9.06;100.00
69257;BME280;56376;53.356;-1.748;2023-02-03T11:36:19;100858.03;;;9.04;100.00
69257;BME280;56376;53.356;-1.748;2023-02-03T11:38:44;100863.28;;;9.01;100.00
69257;BME280;56376;53.356;-1.748;2023-02-03T11:41:18;100863.28;;;9.03;100.00
69257;BME280;56376;53.356;-1.748;2023-02-03T11:43:45;100865.03;;;9.02;100.00
69257;BME280;56376;53.356;-1.748;2023-02-03T11:46:11;100858.94;;;9.02;100.00
69257;BME280;56376;53.356;-1.748;2023-02-03T11:48:55;100864.13;;;9.06;100.00
69257;BME280;56376;53.356;-1.748;2023-02-03T11:51:48;100858.00;;;9.09;100.00
69257;BME280;56376;53.356;-1.748;2023-02-03T11:54:43;100868.47;;;9.04;100.00
69257;BME280;56376;53.356;-1.748;2023-02-03T11:57:29;100862.34;;;9.12;100.00
69257;BME280;56376;53.356;-1.748;2023-02-03T12:08:12;100859.72;;;9.13;100.00
69257;BME280;56376;53.356;-1.748;2023-02-03T12:16:40;100850.13;;;9.20;100.00
69257;BME280;56376;53.356;-1.748;2023-02-03T12:27:30;100877.91;;;9.21;100.00
69257;BME280;56376;53.356;-1.748;2023-02-03T12:30:03;100869.25;;;9.16;100.00
69257;BME280;56376;53.356;-1.748;2023-02-03T12:32:38;100868.44;;;9.10;100.00
69257;BME280;56376;53.356;-1.748;2023-02-03T12:35:38;100862.38;;;9.08;100.00
69257;BME280;56376;53.356;-1.748;2023-02-03T12:38:29;100865.78;;;9.15;100.00
69257;BME280;56376;53.356;-1.748;2023-02-03T12:40:59;100871.09;;;9.07;100.00
69257;BME280;56376;53.356;-1.748;2023-02-03T12:46:17;100861.50;;;9.08;100.00
69257;BME280;56376;53.356;-1.748;2023-02-03T12:49:11;100864.09;;;9.13;100.00
69257;BME280;56376;53.356;-1.748;2023-02-03T12:51:49;100867.59;;;9.08;100.00
69257;BME280;56376;53.356;-1.748;2023-02-03T12:54:38;100866.72;;;9.08;100.00
69257;BME280;56376;53.356;-1.748;2023-02-03T12:57:34;100872.72;;;9.15;100.00
69257;BME280;56376;53.356;-1.748;2023-02-03T13:00:15;100869.25;;;9.16;100.00
69257;BME280;56376;53.356;-1.748;2023-02-03T13:06:11;100878.84;;;9.12;100.00
69257;BME280;56376;53.356;-1.748;2023-02-03T13:11:51;100883.16;;;9.15;100.00
69257;BME280;56376;53.356;-1.748;2023-02-03T13:14:22;100890.13;;;9.14;100.00
69257;BME280;56376;53.356;-1.748;2023-02-03T13:16:56;100885.75;;;9.15;100.00
69257;BME280;56376;53.356;-1.748;2023-02-03T13:19:28;100891.84;;;9.18;100.00
69257;BME280;56376;53.356;-1.748;2023-02-03T13:21:58;100889.19;;;9.23;100.00
69257;BME280;56376;53.356;-1.748;2023-02-03T13:24:24;100876.16;;;9.21;100.00
69257;BME280;56376;53.356;-1.748;2023-02-03T13:30:02;100874.44;;;9.20;100.00
69257;BME280;56376;53.356;-1.748;2023-02-03T13:32:49;100878.75;;;9.21;100.00
69257;BME280;56376;53.356;-1.748;2023-02-03T13:35:31;100882.28;;;9.16;100.00
69257;BME280;56376;53.356;-1.748;2023-02-03T13:38:36;100882.31;;;9.13;100.00
69257;BME280;56376;53.356;-1.748;2023-02-03T13:41:09;100880.63;;;9.10;100.00
69257;BME280;56376;53.356;-1.748;2023-02-03T13:43:43;100879.72;;;9.13;100.00
69257;BME280;56376;53.356;-1.748;2023-02-03T13:46:28;100884.91;;;9.14;100.00
69257;BME280;56376;53.356;-1.748;2023-02-03T13:48:55;100886.66;;;9.15;100.00
69257;BME280;56376;53.356;-1.748;2023-02-03T13:51:29;100888.38;;;9.15;100.00
69257;BME280;56376;53.356;-1.748;2023-02-03T13:54:11;100890.13;;;9.16;100.00
69257;BME280;56376;53.356;-1.748;2023-02-03T13:56:38;100896.16;;;9.22;100.00
69257;BME280;56376;53.356;-1.748;2023-02-03T14:01:39;100890.16;;;9.13;100.00
69257;BME280;56376;53.356;-1.748;2023-02-03T14:12:29;100894.47;;;9.12;100.00
69257;BME280;56376;53.356;-1.748;2023-02-03T14:14:59;100897.97;;;9.13;100.00
69257;BME280;56376;53.356;-1.748;2023-02-03T14:20:02;100897.03;;;9.17;100.00
69257;BME280;56376;53.356;-1.748;2023-02-03T14:22:28;100892.72;;;9.17;100.00
69257;BME280;56376;53.356;-1.748;2023-02-03T14:24:55;100894.44;;;9.20;100.00
69257;BME280;56376;53.356;-1.748;2023-02-03T14:27:25;100902.25;;;9.17;100.00
69257;BME280;56376;53.356;-1.748;2023-02-03T14:30:07;100904.00;;;9.16;100.00
69257;BME280;56376;53.356;-1.748;2023-02-03T14:35:38;100908.38;;;9.17;100.00
69257;BME280;56376;53.356;-1.748;2023-02-03T14:38:14;100907.50;;;9.12;100.00
69257;BME280;56376;53.356;-1.748;2023-02-03T14:40:56;100921.44;;;9.11;100.00
69257;BME280;56376;53.356;-1.748;2023-02-03T14:43:58;100914.47;;;9.13;100.00
69257;BME280;56376;53.356;-1.748;2023-02-03T14:46:57;100913.56;;;9.14;100.00
69257;BME280;56376;53.356;-1.748;2023-02-03T15:04:42;100922.38;;;9.01;100.00
69257;BME280;56376;53.356;-1.748;2023-02-03T15:07:33;100919.78;;;9.02;100.00
69257;BME280;56376;53.356;-1.748;2023-02-03T15:09:58;100923.25;;;9.03;100.00
69257;BME280;56376;53.356;-1.748;2023-02-03T15:12:25;100925.00;;;9.02;100.00
69257;BME280;56376;53.356;-1.748;2023-02-03T15:14:52;100927.59;;;9.02;100.00
69257;BME280;56376;53.356;-1.748;2023-02-03T15:17:23;100925.00;;;9.02;100.00
69257;BME280;56376;53.356;-1.748;2023-02-03T15:19:50;100927.59;;;9.01;100.00
69257;BME280;56376;53.356;-1.748;2023-02-03T15:22:27;100930.19;;;9.01;100.00
69257;BME280;56376;53.356;-1.748;2023-02-03T15:24:58;100933.69;;;8.98;100.00
69257;BME280;56376;53.356;-1.748;2023-02-03T15:27:26;100947.63;;;8.96;100.00
69257;BME280;56376;53.356;-1.748;2023-02-03T15:29:52;100944.16;;;8.94;100.00
69257;BME280;56376;53.356;-1.748;2023-02-03T15:32:25;100950.25;;;8.93;100.00
69257;BME280;56376;53.356;-1.748;2023-02-03T15:34:54;100952.00;;;8.91;100.00
69257;BME280;56376;53.356;-1.748;2023-02-03T15:37:42;100958.97;;;8.87;100.00
69257;BME280;56376;53.356;-1.748;2023-02-03T15:40:18;100961.59;;;8.85;100.00
69257;BME280;56376;53.356;-1.748;2023-02-03T15:43:05;100962.44;;;8.86;100.00
69257;BME280;56376;53.356;-1.748;2023-02-03T15:45:36;100970.22;;;8.89;100.00
69257;BME280;56376;53.356;-1.748;2023-02-03T15:51:02;100978.97;;;8.85;100.00
69257;BME280;56376;53.356;-1.748;2023-02-03T15:53:32;100983.31;;;8.81;100.00
69257;BME280;56376;53.356;-1.748;2023-02-03T15:56:00;100978.09;;;8.83;100.00
69257;BME280;56376;53.356;-1.748;2023-02-03T15:58:44;100982.44;;;8.87;100.00
69257;BME280;56376;53.356;-1.748;2023-02-03T16:01:12;100977.22;;;8.87;100.00
69257;BME280;56376;53.356;-1.748;2023-02-03T16:03:50;100986.81;;;8.77;100.00
69257;BME280;56376;53.356;-1.748;2023-02-03T16:06:33;100985.09;;;8.75;100.00
69257;BME280;56376;53.356;-1.748;2023-02-03T16:09:03;100980.75;;;8.74;100.00
69257;BME280;56376;53.356;-1.748;2023-02-03T16:11:36;100982.50;;;8.73;100.00
69257;BME280;56376;53.356;-1.748;2023-02-03T16:14:09;100979.88;;;8.72;100.00
69257;BME280;56376;53.356;-1.748;2023-02-03T16:16:47;100987.69;;;8.76;100.00
69257;BME280;56376;53.356;-1.748;2023-02-03T16:19:21;100995.47;;;8.81;100.00
69257;BME280;56376;53.356;-1.748;2023-02-03T16:24:38;101005.91;;;8.79;100.00
69257;BME280;56376;53.356;-1.748;2023-02-03T16:27:30;101008.53;;;8.76;100.00
69257;BME280;56376;53.356;-1.748;2023-02-03T16:30:20;101016.34;;;8.76;100.00
69257;BME280;56376;53.356;-1.748;2023-02-03T16:35:52;101018.97;;;8.75;100.00
69257;BME280;56376;53.356;-1.748;2023-02-03T16:38:36;101022.44;;;8.74;100.00
69257;BME280;56376;53.356;-1.748;2023-02-03T16:41:20;101031.97;;;8.76;100.00
69257;BME280;56376;53.356;-1.748;2023-02-03T16:44:04;101033.72;;;8.74;100.00
69257;BME280;56376;53.356;-1.748;2023-02-03T16:46:48;101039.78;;;8.78;100.00
69257;BME280;56376;53.356;-1.748;2023-02-03T16:49:32;101048.47;;;8.84;100.00
69257;BME280;56376;53.356;-1.748;2023-02-03T16:52:16;101057.16;;;8.76;100.00
69257;BME280;56376;53.356;-1.748;2023-02-03T16:54:42;101058.03;;;8.72;100.00
69257;BME280;56376;53.356;-1.748;2023-02-03T16:57:07;101070.22;;;8.68;100.00
69257;BME280;56376;53.356;-1.748;2023-02-03T16:59:33;101067.63;;;8.68;100.00
69257;BME280;56376;53.356;-1.748;2023-02-03T17:01:59;101074.56;;;8.68;100.00
69257;BME280;56376;53.356;-1.748;2023-02-03T17:04:25;101064.19;;;8.64;100.00
69257;BME280;56376;53.356;-1.748;2023-02-03T17:06:50;101078.91;;;8.64;100.00
69257;BME280;56376;53.356;-1.748;2023-02-03T17:09:16;101078.06;;;8.59;100.00
69257;BME280;56376;53.356;-1.748;2023-02-03T17:11:46;101081.56;;;8.59;100.00
69257;BME280;56376;53.356;-1.748;2023-02-03T17:14:12;101075.47;;;8.60;100.00
69257;BME280;56376;53.356;-1.748;2023-02-03T17:16:37;101079.81;;;8.58;100.00
69257;BME280;56376;53.356;-1.748;2023-02-03T17:19:03;101080.72;;;8.54;100.00
69257;BME280;56376;53.356;-1.748;2023-02-03T17:21:29;101078.09;;;8.53;100.00
69257;BME280;56376;53.356;-1.748;2023-02-03T17:23:56;101072.03;;;8.52;100.00
69257;BME280;56376;53.356;-1.748;2023-02-03T17:26:22;101072.88;;;8.53;100.00
69257;BME280;56376;53.356;-1.748;2023-02-03T17:28:48;101078.09;;;8.51;100.00
69257;BME280;56376;53.356;-1.748;2023-02-03T17:31:15;101072.03;;;8.52;100.00
69257;BME280;56376;53.356;-1.748;2023-02-03T17:33:42;101082.41;;;8.54;100.00
69257;BME280;56376;53.356;-1.748;2023-02-03T17:36:12;101083.31;;;8.54;100.00
69257;BME280;56376;53.356;-1.748;2023-02-03T17:38:44;101086.78;;;8.55;100.00
69257;BME280;56376;53.356;-1.748;2023-02-03T17:41:11;101091.97;;;8.53;100.00
69257;BME280;56376;53.356;-1.748;2023-02-03T17:43:36;101086.78;;;8.49;100.00
69257;BME280;56376;53.356;-1.748;2023-02-03T17:46:02;101076.38;;;8.49;100.00
69257;BME280;56376;53.356;-1.748;2023-02-03T17:48:28;101085.03;;;8.49;100.00
69257;BME280;56376;53.356;-1.748;2023-02-03T17:50:54;101084.19;;;8.49;100.00
69257;BME280;56376;53.356;-1.748;2023-02-03T17:53:19;101080.72;;;8.48;100.00
69257;BME280;56376;53.356;-1.748;2023-02-03T17:55:44;101074.63;;;8.46;100.00
69257;BME280;56376;53.356;-1.748;2023-02-03T17:58:10;101085.91;;;8.48;100.00
69257;BME280;56376;53.356;-1.748;2023-02-03T18:00:35;101090.28;;;8.44;100.00
69257;BME280;56376;53.356;-1.748;2023-02-03T18:03:01;101088.50;;;8.47;100.00
69257;BME280;56376;53.356;-1.748;2023-02-03T18:05:27;101092.88;;;8.43;100.00
69257;BME280;56376;53.356;-1.748;2023-02-03T18:07:53;101092.00;;;8.41;100.00
69257;BME280;56376;53.356;-1.748;2023-02-03T18:10:19;101096.34;;;8.40;100.00
69257;BME280;56376;53.356;-1.748;2023-02-03T18:12:44;101103.28;;;8.41;100.00
69257;BME280;56376;53.356;-1.748;2023-02-03T18:15:09;101101.56;;;8.45;100.00
69257;BME280;56376;53.356;-1.748;2023-02-03T18:17:35;101092.88;;;8.41;100.00
69257;BME280;56376;53.356;-1.748;2023-02-03T18:20:01;101102.41;;;8.38;100.00
69257;BME280;56376;53.356;-1.748;2023-02-03T18:22:28;101096.34;;;8.37;100.00
69257;BME280;56376;53.356;-1.748;2023-02-03T18:24:53;101100.72;;;8.40;100.00
69257;BME280;56376;53.356;-1.748;2023-02-03T18:27:20;101100.69;;;8.41;100.00
69257;BME280;56376;53.356;-1.748;2023-02-03T18:29:46;101102.41;;;8.41;100.00
69257;BME280;56376;53.356;-1.748;2023-02-03T18:32:13;101105.00;;;8.36;100.00
69257;BME280;56376;53.356;-1.748;2023-02-03T18:34:39;101099.84;;;8.39;100.00
69257;BME280;56376;53.356;-1.748;2023-02-03T18:37:04;101093.72;;;8.37;100.00
69257;BME280;56376;53.356;-1.748;2023-02-03T18:39:30;101106.72;;;8.39;100.00
69257;BME280;56376;53.356;-1.748;2023-02-03T18:41:56;101111.13;;;8.40;100.00
69257;BME280;56376;53.356;-1.748;2023-02-03T18:44:21;101098.91;;;8.39;100.00
69257;BME280;56376;53.356;-1.748;2023-02-03T18:46:51;101096.31;;;8.39;100.00
69257;BME280;56376;53.356;-1.748;2023-02-03T18:49:16;101100.66;;;8.38;100.00
69257;BME280;56376;53.356;-1.748;2023-02-03T18:51:42;101098.06;;;8.38;100.00
69257;BME280;56376;53.356;-1.748;2023-02-03T18:54:07;101098.06;;;8.38;100.00
69257;BME280;56376;53.356;-1.748;2023-02-03T18:56:33;101100.72;;;8.40;100.00
69257;BME280;56376;53.356;-1.748;2023-02-03T18:59:07;101102.41;;;8.38;100.00
69257;BME280;56376;53.356;-1.748;2023-02-03T19:01:33;101098.94;;;8.36;100.00
69257;BME280;56376;53.356;-1.748;2023-02-03T19:04:00;101100.69;;;8.35;100.00
69257;BME280;56376;53.356;-1.748;2023-02-03T19:06:28;101096.31;;;8.36;100.00
69257;BME280;56376;53.356;-1.748;2023-02-03T19:08:55;101105.88;;;8.34;100.00
69257;BME280;56376;53.356;-1.748;2023-02-03T19:11:21;101103.25;;;8.38;100.00
69257;BME280;56376;53.356;-1.748;2023-02-03T19:13:46;101100.69;;;8.37;100.00
69257;BME280;56376;53.356;-1.748;2023-02-03T19:16:13;101105.88;;;8.35;100.00
69257;BME280;56376;53.356;-1.748;2023-02-03T19:18:41;101104.13;;;8.36;100.00
69257;BME280;56376;53.356;-1.748;2023-02-03T19:21:07;101109.38;;;8.34;100.00
69257;BME280;56376;53.356;-1.748;2023-02-03T19:23:32;101115.41;;;8.36;100.00
69257;BME280;56376;53.356;-1.748;2023-02-03T19:25:57;101102.41;;;8.35;100.00
69257;BME280;56376;53.356;-1.748;2023-02-03T19:28:23;101106.75;;;8.34;100.00
69257;BME280;56376;53.356;-1.748;2023-02-03T19:30:49;101124.09;;;8.34;100.00
69257;BME280;56376;53.356;-1.748;2023-02-03T19:33:14;101121.50;;;8.31;100.00
69257;BME280;56376;53.356;-1.748;2023-02-03T19:35:40;101127.59;;;8.34;100.00
69257;BME280;56376;53.356;-1.748;2023-02-03T19:38:07;101123.25;;;8.32;100.00
69257;BME280;56376;53.356;-1.748;2023-02-03T19:40:33;101135.38;;;8.31;100.00
69257;BME280;56376;53.356;-1.748;2023-02-03T19:42:58;101125.84;;;8.33;100.00
69257;BME280;56376;53.356;-1.748;2023-02-03T19:45:24;101120.63;;;8.33;100.00
69257;BME280;56376;53.356;-1.748;2023-02-03T19:47:50;101122.38;;;8.30;100.00
69257;BME280;56376;53.356;-1.748;2023-02-03T19:50:15;101138.00;;;8.31;100.00
69257;BME280;56376;53.356;-1.748;2023-02-03T19:52:41;101138.88;;;8.32;100.00
69257;BME280;56376;53.356;-1.748;2023-02-03T19:55:07;101137.16;;;8.29;100.00
69257;BME280;56376;53.356;-1.748;2023-02-03T19:57:33;101134.53;;;8.32;100.00
69257;BME280;56376;53.356;-1.748;2023-02-03T19:59:58;101134.50;;;8.34;100.00
69257;BME280;56376;53.356;-1.748;2023-02-03T20:02:24;101141.47;;;8.35;100.00
69257;BME280;56376;53.356;-1.748;2023-02-03T20:04:50;101131.91;;;8.34;100.00
69257;BME280;56376;53.356;-1.748;2023-02-03T20:07:15;101134.50;;;8.34;100.00
69257;BME280;56376;53.356;-1.748;2023-02-03T20:09:41;101134.50;;;8.38;100.00
69257;BME280;56376;53.356;-1.748;2023-02-03T20:12:07;101132.78;;;8.37;100.00
69257;BME280;56376;53.356;-1.748;2023-02-03T20:14:32;101148.41;;;8.36;100.00
69257;BME280;56376;53.356;-1.748;2023-02-03T20:16:58;101153.59;;;8.36;100.00
69257;BME280;56376;53.356;-1.748;2023-02-03T20:19:23;101154.50;;;8.35;100.00
69257;BME280;56376;53.356;-1.748;2023-02-03T20:21:48;101141.47;;;8.35;100.00
69257;BME280;56376;53.356;-1.748;2023-02-03T20:24:14;101134.53;;;8.31;100.00
69257;BME280;56376;53.356;-1.748;2023-02-03T20:26:39;101144.06;;;8.33;100.00
69257;BME280;56376;53.356;-1.748;2023-02-03T20:29:05;101149.28;;;8.33;100.00
69257;BME280;56376;53.356;-1.748;2023-02-03T20:31:31;101146.66;;;8.33;100.00
69257;BME280;56376;53.356;-1.748;2023-02-03T20:33:56;101139.72;;;8.34;100.00
69257;BME280;56376;53.356;-1.748;2023-02-03T20:36:22;101148.41;;;8.33;100.00
69257;BME280;56376;53.356;-1.748;2023-02-03T20:38:48;101152.75;;;8.34;100.00
69257;BME280;56376;53.356;-1.748;2023-02-03T20:41:16;101154.47;;;8.36;100.00
69257;BME280;56376;53.356;-1.748;2023-02-03T20:43:42;101153.63;;;8.33;100.00
69257;BME280;56376;53.356;-1.748;2023-02-03T20:46:10;101151.88;;;8.33;100.00
69257;BME280;56376;53.356;-1.748;2023-02-03T20:48:35;101154.47;;;8.38;100.00
69257;BME280;56376;53.356;-1.748;2023-02-03T20:51:01;101168.38;;;8.38;100.00
69257;BME280;56376;53.356;-1.748;2023-02-03T20:53:26;101167.50;;;8.36;100.00
69257;BME280;56376;53.356;-1.748;2023-02-03T20:55:56;101164.03;;;8.33;100.00
69257;BME280;56376;53.356;-1.748;2023-02-03T20:58:28;101157.09;;;8.29;100.00
69257;BME280;56376;53.356;-1.748;2023-02-03T21:00:55;101154.47;;;8.29;100.00
69257;BME280;56376;53.356;-1.748;2023-02-03T21:03:21;101152.75;;;8.26;100.00
69257;BME280;56376;53.356;-1.748;2023-02-03T21:06:15;101156.22;;;8.30;100.00
69257;BME280;56376;53.356;-1.748;2023-02-03T21:08:41;101157.09;;;8.29;100.00